createdAt,value
2022-11-01T00:00:18.360Z,13.52
2022-11-01T00:02:46.572Z,14.09
2022-11-01T00:05:14.891Z,13.96
2022-11-01T00:07:42.367Z,13.77
2022-11-01T00:10:10.796Z,13.78
2022-11-01T00:12:38.929Z,14.09
2022-11-01T00:15:10.384Z,13.83
2022-11-01T00:17:38.573Z,13.71
2022-11-01T00:20:06.492Z,13.67
2022-11-01T00:22:35.751Z,13.89
2022-11-01T00:25:04.235Z,14.04
2022-11-01T00:27:31.862Z,14.03
2022-11-01T00:29:59.670Z,14.16
2022-11-01T00:32:27.524Z,14.17
2022-11-01T00:34:55.358Z,13.84
2022-11-01T00:37:24.428Z,13.67
2022-11-01T00:39:52.508Z,13.70
2022-11-01T00:42:20.087Z,13.95
2022-11-01T00:44:47.801Z,13.99
2022-11-01T00:47:16.022Z,13.97
2022-11-01T00:49:43.890Z,13.48
2022-11-01T00:52:11.846Z,13.32
2022-11-01T00:54:39.871Z,13.18
2022-11-01T00:57:08.537Z,13.44
2022-11-01T00:59:40.722Z,13.38
2022-11-01T01:02:09.704Z,13.36
2022-11-01T01:04:42.343Z,13.26
2022-11-01T01:07:11.532Z,13.42
2022-11-01T01:09:39.259Z,13.30
2022-11-01T01:12:07.001Z,13.31
2022-11-01T01:14:35.422Z,13.50
2022-11-01T01:17:03.061Z,13.48
2022-11-01T01:19:31.613Z,13.22
2022-11-01T01:22:01.160Z,13.26
2022-11-01T01:24:28.916Z,13.14
2022-11-01T01:26:56.754Z,13.30
2022-11-01T01:29:24.796Z,13.23
2022-11-01T01:31:52.879Z,12.60
2022-11-01T01:34:22.395Z,12.77
2022-11-01T01:36:51.892Z,13.06
2022-11-01T01:39:20.271Z,12.95
2022-11-01T01:41:58.206Z,13.25
2022-11-01T01:44:50.265Z,13.22
2022-11-01T01:47:33.111Z,13.17
2022-11-01T01:50:14.671Z,13.33
2022-11-01T01:52:56.403Z,13.14
2022-11-01T01:55:30.639Z,13.38
2022-11-01T01:57:58.554Z,13.45
2022-11-01T02:00:27.248Z,13.58
2022-11-01T02:02:55.405Z,13.26
2022-11-01T02:05:37.412Z,13.54
2022-11-01T02:08:05.654Z,13.32
2022-11-01T02:10:35.047Z,13.29
2022-11-01T02:13:02.909Z,13.14
2022-11-01T02:15:42.058Z,13.24
2022-11-01T02:18:17.172Z,13.12
2022-11-01T02:21:28.281Z,13.11
2022-11-01T02:24:13.858Z,13.27
2022-11-01T02:27:03.310Z,13.20
2022-11-01T02:30:08.443Z,13.19
2022-11-01T02:32:55.567Z,13.40
2022-11-01T02:35:33.331Z,13.19
2022-11-01T02:38:35.303Z,13.64
2022-11-01T02:41:13.420Z,13.46
2022-11-01T02:43:53.855Z,12.85
2022-11-01T02:46:41.404Z,13.29
2022-11-01T02:49:11.826Z,13.27
2022-11-01T02:51:40.068Z,13.23
2022-11-01T02:54:10.950Z,12.91
2022-11-01T02:56:39.540Z,13.38
2022-11-01T02:59:16.300Z,13.25
2022-11-01T03:01:51.156Z,13.12
2022-11-01T03:04:19.366Z,13.30
2022-11-01T03:06:53.668Z,12.93
2022-11-01T03:09:21.654Z,13.10
2022-11-01T03:11:55.173Z,13.36
2022-11-01T03:14:34.405Z,13.25
2022-11-01T03:17:09.594Z,13.04
2022-11-01T03:20:06.173Z,13.00
2022-11-01T03:22:47.840Z,12.96
2022-11-01T03:25:34.581Z,12.79
2022-11-01T03:28:06.528Z,12.91
2022-11-01T03:30:35.707Z,13.16
2022-11-01T03:33:04.355Z,13.18
2022-11-01T03:35:36.128Z,13.00
2022-11-01T03:38:13.688Z,12.75
2022-11-01T03:40:45.083Z,13.02
2022-11-01T03:43:15.427Z,13.28
2022-11-01T03:45:43.567Z,13.23
2022-11-01T03:48:10.934Z,13.28
2022-11-01T03:50:40.247Z,13.37
2022-11-01T03:53:08.079Z,12.96
2022-11-01T03:55:35.581Z,13.51
2022-11-01T03:58:03.787Z,13.57
2022-11-01T04:00:38.104Z,13.73
2022-11-01T04:03:06.800Z,13.89
2022-11-01T04:05:35.795Z,13.75
2022-11-01T04:08:03.898Z,13.27
2022-11-01T04:10:32.331Z,13.00
2022-11-01T04:13:00.186Z,13.06
2022-11-01T04:18:42.514Z,12.92
2022-11-01T04:21:15.197Z,13.29
2022-11-01T04:23:44.648Z,13.10
2022-11-01T04:26:17.084Z,12.83
2022-11-01T04:28:57.121Z,13.37
2022-11-01T04:31:36.933Z,12.95
2022-11-01T04:34:05.591Z,13.11
2022-11-01T04:36:33.132Z,13.18
2022-11-01T04:39:02.195Z,13.33
2022-11-01T04:41:30.426Z,13.01
2022-11-01T04:43:59.111Z,12.99
2022-11-01T04:46:31.887Z,13.04
2022-11-01T04:48:59.625Z,13.17
2022-11-01T04:51:27.332Z,13.19
2022-11-01T04:53:55.615Z,12.88
2022-11-01T04:56:23.563Z,12.72
2022-11-01T04:58:51.761Z,13.07
2022-11-01T05:01:20.371Z,12.96
2022-11-01T05:03:49.719Z,13.00
2022-11-01T05:06:17.674Z,12.99
2022-11-01T05:08:45.245Z,13.10
2022-11-01T05:11:15.117Z,12.72
2022-11-01T05:13:45.209Z,13.10
2022-11-01T05:16:19.498Z,13.32
2022-11-01T05:18:49.078Z,12.94
2022-11-01T05:21:20.222Z,12.86
2022-11-01T05:23:49.112Z,12.95
2022-11-01T05:26:17.624Z,13.00
2022-11-01T05:28:45.192Z,13.03
2022-11-01T05:31:13.451Z,12.84
2022-11-01T05:33:41.248Z,13.11
2022-11-01T05:36:09.365Z,12.90
2022-11-01T05:38:37.454Z,12.95
2022-11-01T05:41:05.754Z,13.18
2022-11-01T05:43:33.612Z,13.42
2022-11-01T05:46:07.229Z,13.56
2022-11-01T05:48:35.903Z,12.89
2022-11-01T05:51:05.929Z,13.35
2022-11-01T05:53:40.325Z,13.23
2022-11-01T05:56:08.970Z,13.41
2022-11-01T05:58:37.860Z,13.22
2022-11-01T06:01:06.757Z,12.87
2022-11-01T06:03:37.009Z,12.85
2022-11-01T06:06:07.304Z,12.67
2022-11-01T06:08:42.390Z,12.80
2022-11-01T06:11:13.987Z,13.07
2022-11-01T06:13:43.984Z,13.08
2022-11-01T06:16:12.768Z,12.46
2022-11-01T06:18:41.724Z,12.50
2022-11-01T06:21:09.705Z,12.64
2022-11-01T06:23:38.829Z,12.72
2022-11-01T06:26:13.252Z,12.47
2022-11-01T06:28:42.574Z,13.11
2022-11-01T06:31:13.249Z,13.05
2022-11-01T06:33:51.312Z,12.64
2022-11-01T06:36:19.460Z,12.86
2022-11-01T06:38:50.098Z,13.15
2022-11-01T06:41:18.541Z,13.03
2022-11-01T06:43:49.292Z,13.31
2022-11-01T06:46:25.461Z,13.08
2022-11-01T06:48:55.335Z,13.04
2022-11-01T06:51:25.497Z,13.11
2022-11-01T06:53:55.585Z,13.05
2022-11-01T06:56:23.435Z,13.11
2022-11-01T06:58:57.872Z,13.15
2022-11-01T07:04:06.619Z,12.88
2022-11-01T07:06:34.892Z,13.19
2022-11-01T07:11:40.136Z,13.11
2022-11-01T07:14:14.801Z,13.39
2022-11-01T07:16:46.862Z,13.47
2022-11-01T07:19:17.845Z,13.36
2022-11-01T07:24:34.333Z,12.86
2022-11-01T07:27:06.474Z,12.69
2022-11-01T07:29:38.231Z,13.03
2022-11-01T07:32:08.387Z,13.21
2022-11-01T07:34:47.347Z,12.95
2022-11-01T07:39:58.246Z,13.03
2022-11-01T07:42:28.483Z,13.06
2022-11-01T07:44:59.278Z,13.09
2022-11-01T07:47:33.445Z,13.52
2022-11-01T07:50:09.212Z,13.20
2022-11-01T07:52:58.421Z,12.97
2022-11-01T07:55:34.093Z,12.90
2022-11-01T07:58:03.045Z,12.95
2022-11-01T08:00:32.447Z,12.99
2022-11-01T08:03:12.844Z,12.73
2022-11-01T08:05:41.556Z,12.96
2022-11-01T08:11:03.350Z,12.87
2022-11-01T08:13:39.294Z,12.97
2022-11-01T08:16:07.886Z,13.35
2022-11-01T08:18:38.446Z,12.67
2022-11-01T08:21:06.660Z,12.54
2022-11-01T08:23:34.704Z,12.86
2022-11-01T08:26:09.307Z,12.84
2022-11-01T08:28:39.075Z,13.08
2022-11-01T08:31:14.669Z,12.83
2022-11-01T08:33:47.535Z,12.88
2022-11-01T08:36:17.723Z,12.87
2022-11-01T08:39:00.618Z,13.20
2022-11-01T08:44:24.358Z,12.88
2022-11-01T08:46:57.200Z,13.28
2022-11-01T08:49:35.408Z,13.30
2022-11-01T08:52:12.556Z,13.16
2022-11-01T08:55:01.875Z,13.19
2022-11-01T09:00:29.555Z,13.26
2022-11-01T09:03:00.492Z,12.88
2022-11-01T09:05:33.325Z,13.04
2022-11-01T09:08:09.693Z,13.24
2022-11-01T09:10:52.479Z,13.14
2022-11-01T09:13:25.516Z,13.08
2022-11-01T09:16:07.339Z,13.31
2022-11-01T09:18:44.350Z,13.61
2022-11-01T09:21:14.770Z,13.71
2022-11-01T09:23:44.662Z,13.75
2022-11-01T09:26:30.303Z,13.50
2022-11-01T09:29:02.502Z,13.40
2022-11-01T09:31:33.919Z,13.47
2022-11-01T09:34:13.974Z,13.79
2022-11-01T09:36:43.396Z,13.60
2022-11-01T09:39:16.487Z,13.67
2022-11-01T09:41:52.372Z,13.65
2022-11-01T09:44:32.495Z,13.69
2022-11-01T09:47:09.405Z,13.66
2022-11-01T09:52:55.845Z,13.78
2022-11-01T09:55:55.764Z,13.55
2022-11-01T09:58:55.301Z,13.41
2022-11-01T10:01:58.291Z,13.49
2022-11-01T10:04:34.868Z,13.56
2022-11-01T10:07:35.331Z,13.65
2022-11-01T10:10:22.250Z,13.88
2022-11-01T10:13:14.307Z,13.81
2022-11-01T10:16:05.315Z,13.90
2022-11-01T10:18:45.392Z,13.62
2022-11-01T10:21:25.867Z,13.69
2022-11-01T10:24:03.776Z,13.90
2022-11-01T10:26:38.653Z,13.97
2022-11-01T10:29:17.076Z,13.83
2022-11-01T10:31:48.320Z,14.13
2022-11-01T10:34:36.205Z,14.33
2022-11-01T10:37:30.282Z,14.19
2022-11-01T10:42:44.853Z,13.67
2022-11-01T10:45:25.365Z,13.74
2022-11-01T10:48:05.580Z,13.80
2022-11-01T10:50:34.799Z,14.21
2022-11-01T10:53:13.456Z,14.08
2022-11-01T10:56:03.270Z,13.86
2022-11-01T10:58:51.517Z,13.99
2022-11-01T11:01:26.994Z,13.95
2022-11-01T11:04:08.458Z,14.33
2022-11-01T11:07:17.541Z,13.61
2022-11-01T11:12:32.098Z,14.22
2022-11-01T11:17:52.349Z,14.03
2022-11-01T11:20:37.899Z,13.88
2022-11-01T11:25:50.880Z,14.21
2022-11-01T11:28:32.385Z,14.31
2022-11-01T11:31:30.566Z,13.96
2022-11-01T11:34:30.314Z,14.26
2022-11-01T11:37:06.340Z,14.02
2022-11-01T11:40:03.553Z,14.23
2022-11-01T11:42:33.433Z,14.19
2022-11-01T11:45:31.284Z,14.15
2022-11-01T11:48:22.305Z,14.19
2022-11-01T11:51:05.287Z,14.44
2022-11-01T11:53:40.304Z,14.78
2022-11-01T11:56:09.694Z,14.47
2022-11-01T11:58:49.320Z,14.83
2022-11-01T12:01:24.369Z,14.97
2022-11-01T12:03:58.286Z,14.61
2022-11-01T12:06:37.260Z,14.56
2022-11-01T12:09:35.756Z,14.80
2022-11-01T12:12:24.347Z,14.74
2022-11-01T12:14:56.287Z,14.41
2022-11-01T12:17:52.373Z,14.50
2022-11-01T12:20:36.680Z,14.75
2022-11-01T12:23:21.524Z,14.85
2022-11-01T12:25:51.642Z,14.99
2022-11-01T12:28:45.296Z,14.75
2022-11-01T12:31:22.464Z,14.89
2022-11-01T12:37:05.542Z,15.01
2022-11-01T12:39:44.076Z,14.60
2022-11-01T12:42:30.192Z,14.78
2022-11-01T12:45:07.480Z,14.97
2022-11-01T12:47:44.533Z,14.96
2022-11-01T12:50:25.001Z,14.98
2022-11-01T12:55:49.365Z,15.35
2022-11-01T12:58:25.476Z,15.35
2022-11-01T13:01:16.619Z,15.22
2022-11-01T13:04:00.285Z,15.22
2022-11-01T13:06:44.558Z,15.28
2022-11-01T13:09:46.331Z,15.40
2022-11-01T13:12:34.633Z,15.01
2022-11-01T13:15:43.475Z,14.94
2022-11-01T13:18:27.482Z,15.26
2022-11-01T13:21:12.305Z,15.48
2022-11-01T13:26:30.758Z,15.40
2022-11-01T13:29:40.061Z,15.25
2022-11-01T13:32:32.904Z,15.26
2022-11-01T13:35:23.555Z,15.25
2022-11-01T13:37:58.542Z,15.19
2022-11-01T13:40:33.294Z,15.23
2022-11-01T13:43:18.378Z,15.14
2022-11-01T13:46:16.329Z,15.24
2022-11-01T13:49:04.736Z,15.30
2022-11-01T13:52:02.421Z,15.35
2022-11-01T13:54:48.196Z,15.34
2022-11-01T13:57:17.916Z,15.50
2022-11-01T13:59:57.293Z,15.39
2022-11-01T14:02:35.387Z,15.44
2022-11-01T14:07:50.944Z,15.37
2022-11-01T14:10:20.262Z,15.46
2022-11-01T14:13:10.690Z,15.47
2022-11-01T14:16:00.571Z,15.24
2022-11-01T14:18:30.024Z,15.45
2022-11-01T14:21:00.509Z,15.06
2022-11-01T14:23:30.054Z,15.24
2022-11-01T14:27:08.047Z,15.38
2022-11-01T14:29:37.957Z,15.44
2022-11-01T14:32:11.672Z,15.29
2022-11-01T14:34:47.259Z,15.42
2022-11-01T14:37:21.312Z,15.40
2022-11-01T14:40:01.818Z,15.39
2022-11-01T14:42:40.136Z,15.47
2022-11-01T14:45:24.565Z,15.50
2022-11-01T14:47:57.675Z,15.47
2022-11-01T14:50:43.169Z,15.46
2022-11-01T14:53:22.640Z,15.68
2022-11-01T14:55:53.518Z,15.76
2022-11-01T14:58:24.283Z,15.55
2022-11-01T15:00:56.648Z,15.45
2022-11-01T15:03:29.376Z,15.53
2022-11-01T15:06:08.245Z,15.53
2022-11-01T15:08:48.186Z,15.69
2022-11-01T15:11:20.641Z,15.61
2022-11-01T15:13:49.329Z,15.43
2022-11-01T15:16:23.190Z,15.33
2022-11-01T15:19:01.478Z,15.47
2022-11-01T15:21:46.705Z,15.40
2022-11-01T15:24:30.344Z,15.54
2022-11-01T15:27:18.288Z,15.50
2022-11-01T15:29:59.313Z,15.60
2022-11-01T15:35:24.198Z,15.48
2022-11-01T15:37:55.403Z,15.72
2022-11-01T15:40:37.061Z,15.56
2022-11-01T15:43:08.399Z,15.63
2022-11-01T15:48:22.356Z,15.53
2022-11-01T15:51:06.228Z,15.48
2022-11-01T15:53:37.193Z,15.41
2022-11-01T15:56:12.266Z,15.46
2022-11-01T15:58:44.835Z,15.44
2022-11-01T16:01:23.597Z,15.46
2022-11-01T16:07:02.302Z,15.50
2022-11-01T16:09:53.284Z,15.50
2022-11-01T16:12:35.546Z,15.50
2022-11-01T16:15:23.422Z,15.44
2022-11-01T16:18:00.512Z,15.56
2022-11-01T16:20:41.330Z,15.33
2022-11-01T16:23:32.292Z,15.50
2022-11-01T16:26:13.426Z,15.50
2022-11-01T16:28:46.542Z,15.45
2022-11-01T16:33:59.931Z,15.38
2022-11-01T16:36:45.429Z,15.40
2022-11-01T16:39:32.342Z,15.52
2022-11-01T16:42:36.246Z,15.56
2022-11-01T16:45:05.950Z,15.58
2022-11-01T16:47:44.259Z,15.46
2022-11-01T16:50:26.207Z,15.51
2022-11-01T16:53:10.157Z,15.59
2022-11-01T16:55:45.354Z,15.61
2022-11-01T16:58:23.928Z,15.58
2022-11-01T17:01:00.599Z,15.63
2022-11-01T17:03:35.374Z,15.55
2022-11-01T17:06:09.366Z,15.44
2022-11-01T17:08:41.440Z,15.49
2022-11-01T17:11:15.395Z,15.46
2022-11-01T17:13:49.152Z,15.49
2022-11-01T17:16:28.702Z,15.44
2022-11-01T17:19:09.371Z,15.48
2022-11-01T17:21:48.322Z,15.46
2022-11-01T17:24:25.044Z,15.48
2022-11-01T17:27:03.305Z,15.51
2022-11-01T17:32:20.262Z,15.59
2022-11-01T17:34:53.793Z,15.54
2022-11-01T17:40:20.789Z,15.37
2022-11-01T17:42:53.543Z,15.42
2022-11-01T17:45:23.437Z,15.44
2022-11-01T17:51:00.969Z,15.61
2022-11-01T17:53:41.634Z,15.41
2022-11-01T17:56:13.373Z,15.49
2022-11-01T17:58:41.841Z,15.38
2022-11-01T18:03:45.442Z,15.32
2022-11-01T18:06:41.296Z,15.35
2022-11-01T18:15:12.308Z,15.67
2022-11-01T18:17:53.906Z,15.58
2022-11-01T18:20:34.290Z,15.49
2022-11-01T18:23:15.241Z,15.27
2022-11-01T18:25:48.606Z,15.55
2022-11-01T18:28:27.282Z,15.57
2022-11-01T18:31:27.330Z,15.50
2022-11-01T18:34:04.546Z,15.51
2022-11-01T18:36:53.231Z,15.45
2022-11-01T18:42:28.304Z,15.38
2022-11-01T18:45:01.756Z,15.21
2022-11-01T18:47:41.209Z,15.32
2022-11-01T18:50:36.047Z,15.18
2022-11-01T18:53:17.337Z,15.21
2022-11-01T18:55:50.562Z,15.37
2022-11-01T18:58:31.280Z,15.22
2022-11-01T19:01:19.470Z,15.34
2022-11-01T19:03:58.040Z,15.55
2022-11-01T19:06:27.646Z,15.43
2022-11-01T19:09:03.335Z,15.49
2022-11-01T19:11:38.593Z,15.24
2022-11-01T19:14:24.328Z,15.33
2022-11-01T19:16:54.511Z,15.22
2022-11-01T19:19:23.125Z,15.42
2022-11-01T19:21:53.341Z,15.53
2022-11-01T19:24:36.331Z,15.39
2022-11-01T19:27:22.294Z,15.23
2022-11-01T19:35:19.408Z,15.44
2022-11-01T19:37:58.492Z,15.31
2022-11-01T19:40:32.027Z,15.09
2022-11-01T19:43:17.399Z,15.07
2022-11-01T19:46:05.271Z,15.22
2022-11-01T19:48:42.698Z,15.43
2022-11-01T19:54:00.040Z,14.85
2022-11-01T19:56:30.708Z,15.06
2022-11-01T19:59:11.352Z,15.14
2022-11-01T20:01:44.487Z,15.22
2022-11-01T20:04:26.042Z,15.28
2022-11-01T20:07:20.752Z,15.07
2022-11-01T20:09:55.975Z,14.85
2022-11-01T20:13:10.406Z,14.75
2022-11-01T20:15:41.577Z,14.83
2022-11-01T20:18:12.286Z,14.42
2022-11-01T20:20:46.749Z,14.70
2022-11-01T20:23:26.661Z,14.80
2022-11-01T20:26:02.343Z,14.70
2022-11-01T20:28:38.205Z,14.56
2022-11-01T20:31:06.688Z,15.09
2022-11-01T20:33:34.737Z,14.69
2022-11-01T20:36:10.828Z,15.07
2022-11-01T20:38:40.296Z,14.70
2022-11-01T20:41:16.348Z,14.91
2022-11-01T20:43:45.913Z,14.81
2022-11-01T20:46:14.943Z,14.57
2022-11-01T20:48:45.569Z,14.50
2022-11-01T20:51:15.078Z,14.63
2022-11-01T20:53:49.393Z,14.84
2022-11-01T20:56:23.337Z,15.07
2022-11-01T21:04:19.504Z,14.24
2022-11-01T21:06:49.470Z,14.44
2022-11-01T21:09:32.227Z,14.56
2022-11-01T21:12:13.344Z,14.68
2022-11-01T21:14:42.710Z,14.73
2022-11-01T21:17:18.388Z,14.81
2022-11-01T21:19:56.342Z,14.47
2022-11-01T21:22:25.016Z,14.34
2022-11-01T21:24:54.270Z,14.66
2022-11-01T21:27:26.940Z,14.95
2022-11-01T21:30:16.322Z,14.85
2022-11-01T21:32:45.557Z,15.17
2022-11-01T21:35:21.126Z,15.04
2022-11-01T21:37:54.831Z,14.58
2022-11-01T21:40:29.240Z,14.42
2022-11-01T21:43:01.321Z,14.76
2022-11-01T21:45:35.112Z,14.87
2022-11-01T21:48:26.833Z,14.80
2022-11-01T21:50:57.714Z,14.72
2022-11-01T21:53:33.240Z,14.53
2022-11-01T21:56:04.713Z,14.87
2022-11-01T21:58:36.451Z,14.81
2022-11-01T22:01:06.273Z,14.63
2022-11-01T22:03:36.461Z,14.18
2022-11-01T22:06:10.625Z,14.79
2022-11-01T22:08:38.947Z,14.75
2022-11-01T22:11:06.853Z,14.94
2022-11-01T22:13:34.829Z,15.14
2022-11-01T22:16:04.346Z,14.97
2022-11-01T22:18:34.300Z,14.63
2022-11-01T22:21:03.520Z,14.94
2022-11-01T22:23:31.590Z,14.78
2022-11-01T22:26:02.350Z,15.13
2022-11-01T22:28:33.467Z,14.79
2022-11-01T22:31:02.982Z,14.80
2022-11-01T22:33:32.006Z,15.05
2022-11-01T22:35:59.976Z,14.92
2022-11-01T22:38:37.862Z,14.87
2022-11-01T22:41:12.852Z,14.89
2022-11-01T22:43:46.482Z,14.84
2022-11-01T22:46:21.985Z,15.13
2022-11-01T22:48:49.737Z,15.15
2022-11-01T22:51:38.398Z,15.09
2022-11-01T22:54:42.246Z,14.99
2022-11-01T22:57:15.661Z,14.95
2022-11-01T22:59:46.664Z,15.10
2022-11-01T23:02:31.632Z,15.15
2022-11-01T23:05:08.724Z,14.65
2022-11-01T23:07:43.039Z,15.10
2022-11-01T23:10:38.250Z,15.00
2022-11-01T23:13:35.634Z,14.71
2022-11-01T23:16:37.438Z,14.70
2022-11-01T23:19:09.379Z,14.78
2022-11-01T23:21:37.161Z,14.91
2022-11-01T23:24:07.916Z,15.09
2022-11-01T23:26:37.040Z,14.78
2022-11-01T23:29:06.182Z,14.96
2022-11-01T23:31:37.753Z,14.63
2022-11-01T23:34:06.102Z,14.57
2022-11-01T23:36:37.660Z,14.79
2022-11-01T23:39:12.467Z,14.78
2022-11-01T23:41:51.091Z,14.78
2022-11-01T23:44:36.026Z,14.79
2022-11-01T23:47:09.826Z,14.80
2022-11-01T23:49:37.924Z,14.84
2022-11-01T23:52:28.209Z,14.80
2022-11-01T23:54:56.492Z,14.74
2022-11-01T23:57:27.826Z,14.76
2022-11-01T23:59:56.257Z,14.84
